Terminal Aerodrome Forecast
Issued by NWS

Home | Current Version | Previous Version | Text Only | Print | Product List | Glossary Off
Versions: 1 2 3 4 5 6 7 8 9 10 11 12 13 14

584
FTUS43 KOAX 020013 CCA
TAFCDR
TAF COR
KCDR 020013Z 0200/0224 28008KT P6SM OVC060
     FM020200 28005KT P6SM SCT060 OVC100=

USA.gov is the U.S. government's official web portal to all federal, state and local government web resources and services.